Time;durP1;ratioP1;P1;durP2;ratioP2;P2;SDS_P1;SDS_P2;PMS_P1;PMS_P2;Temp;Humidity;BMP_temperature;BMP_pressure;BME280_temperature;BME280_humidity;BME280_pressure;Samples;Min_cycle;Max_cycle;Signal;HPM_P1;HPM_P2
2022/04/05 00:01:48;;;;;;;24.10;4.32;;;;;;;;;;5107667;28;20438;-61
2022/04/05 00:04:14;;;;;;;19.38;3.97;;;;;;;;;;5109608;28;20054;-60
2022/04/05 00:06:40;;;;;;;25.00;4.10;;;;;;;;;;5107645;28;20043;-60
2022/04/05 00:09:07;;;;;;;21.92;3.78;;;;;;;;;;5109564;28;20138;-60
2022/04/05 00:11:33;;;;;;;;;;;;;;;;;;5109617;28;20039;-61
2022/04/05 00:14:00;;;;;;;19.02;3.92;;;;;;;;;;5069032;28;19943;-60
2022/04/05 00:16:26;;;;;;;28.42;3.85;;;;;;;;;;5068858;28;20037;-60
2022/04/05 00:18:54;;;;;;;17.50;3.75;;;;;;;;;;5050388;28;20070;-61
2022/04/05 00:21:20;;;;;;;19.75;3.75;;;;;;;;;;5067096;28;20108;-60
2022/04/05 00:23:46;;;;;;;18.95;3.22;;;;;;;;;;5085384;28;20036;-61
2022/04/05 00:26:12;;;;;;;18.30;3.45;;;;;;;;;;5088766;28;20114;-61
2022/04/05 00:28:41;;;;;;;23.15;4.38;;;;;;;;;;5088186;28;20111;-61
2022/04/05 00:31:07;;;;;;;25.52;3.97;;;;;;;;;;5086876;28;20436;-61
2022/04/05 00:33:33;;;;;;;22.25;3.95;;;;;;;;;;5089855;28;20048;-61
2022/04/05 00:35:59;;;;;;;26.30;4.47;;;;;;;;;;5088369;28;20443;-60
2022/04/05 00:38:27;;;;;;;25.17;3.92;;;;;;;;;;5070647;28;20048;-61
2022/04/05 00:40:58;;;;;;;23.65;4.18;;;;;;;;;;5088454;28;20044;-61
2022/04/05 00:43:24;;;;;;;26.90;4.38;;;;;;;;;;5092006;28;20392;-60
2022/04/05 00:45:50;;;;;;;27.77;4.47;;;;;;;;;;5075537;28;20495;-61
2022/04/05 00:48:42;;;;;;;23.65;4.88;;;;;;;;;;5086930;28;20116;-60
2022/04/05 00:51:08;;;;;;;25.45;3.97;;;;;;;;;;5121283;27;20048;-60
2022/04/05 00:53:35;;;;;;;23.90;3.78;;;;;;;;;;5096465;28;20468;-61
2022/04/05 00:56:01;;;;;;;26.02;4.25;;;;;;;;;;5107903;28;20410;-60
2022/04/05 00:58:28;;;;;;;24.20;4.75;;;;;;;;;;5107205;28;20055;-60
2022/04/05 01:00:55;;;;;;;22.75;3.90;;;;;;;;;;5106785;28;20074;-61
2022/04/05 01:03:22;;;;;;;18.02;4.18;;;;;;;;;;5104097;28;20425;-60
2022/04/05 01:05:49;;;;;;;21.08;4.60;;;;;;;;;;5087885;28;20131;-61
2022/04/05 01:08:17;;;;;;;23.50;4.15;;;;;;;;;;5088720;28;20212;-61
2022/04/05 01:10:43;;;;;;;23.20;4.03;;;;;;;;;;5088135;28;20175;-60
2022/04/05 01:13:09;;;;;;;20.88;3.78;;;;;;;;;;5088482;28;20167;-60
2022/04/05 01:15:35;;;;;;;37.90;4.30;;;;;;;;;;5089294;28;20051;-60
2022/04/05 01:18:01;;;;;;;23.17;4.28;;;;;;;;;;5086166;28;20264;-60
2022/04/05 01:20:27;;;;;;;23.95;4.68;;;;;;;;;;5088234;28;20082;-60
2022/04/05 01:22:54;;;;;;;24.40;5.00;;;;;;;;;;5087167;28;20575;-61
2022/04/05 01:25:20;;;;;;;21.23;4.18;;;;;;;;;;5087821;28;20138;-60
2022/04/05 01:27:47;;;;;;;21.88;4.20;;;;;;;;;;5087979;28;20084;-63
2022/04/05 01:30:13;;;;;;;24.05;5.60;;;;;;;;;;5088451;28;20036;-61
2022/04/05 01:32:39;;;;;;;29.52;5.60;;;;;;;;;;5088444;28;20119;-60
2022/04/05 01:35:06;;;;;;;29.65;4.35;;;;;;;;;;5091704;28;20039;-61
2022/04/05 01:37:35;;;;;;;23.65;3.97;;;;;;;;;;5107717;28;20134;-60
2022/04/05 01:40:02;;;;;;;19.48;4.18;;;;;;;;;;5106865;28;20039;-60
2022/04/05 01:42:30;;;;;;;25.83;4.82;;;;;;;;;;5110020;28;20463;-60
2022/04/05 01:44:56;;;;;;;20.67;4.50;;;;;;;;;;5091527;28;20035;-61
2022/04/05 01:47:22;;;;;;;28.08;4.25;;;;;;;;;;5112394;28;20214;-60
2022/04/05 01:49:49;;;;;;;28.77;4.68;;;;;;;;;;5110933;28;20126;-61
2022/04/05 01:52:15;;;;;;;20.65;3.83;;;;;;;;;;5112671;28;20119;-60
2022/04/05 01:54:41;;;;;;;24.38;4.00;;;;;;;;;;5102209;28;20040;-60
2022/04/05 01:57:07;;;;;;;31.38;4.88;;;;;;;;;;5089892;28;20070;-61
2022/04/05 01:59:34;;;;;;;23.85;3.90;;;;;;;;;;5091936;28;20044;-60
2022/04/05 02:02:04;;;;;;;20.67;3.97;;;;;;;;;;5091229;28;20429;-61
2022/04/05 02:04:30;;;;;;;23.70;4.43;;;;;;;;;;5092578;28;20463;-61
2022/04/05 02:06:59;;;;;;;21.40;4.28;;;;;;;;;;5089836;28;20062;-61
2022/04/05 02:09:25;;;;;;;27.80;4.63;;;;;;;;;;5091668;28;20127;-61
2022/04/05 02:11:53;;;;;;;;;;;;;;;;;;5090427;28;20055;-61
2022/04/05 02:14:19;;;;;;;26.20;4.93;;;;;;;;;;5091371;28;19984;-61
2022/04/05 02:16:48;;;;;;;22.02;4.40;;;;;;;;;;5091113;28;20226;-61
2022/04/05 02:19:14;;;;;;;33.63;5.13;;;;;;;;;;5091559;28;20413;-60
2022/04/05 02:21:40;;;;;;;24.98;4.47;;;;;;;;;;5090043;28;20497;-60
2022/04/05 02:24:06;;;;;;;24.73;4.13;;;;;;;;;;5090765;28;20119;-61
2022/04/05 02:26:33;;;;;;;28.67;4.53;;;;;;;;;;5092320;28;20052;-60
2022/04/05 02:28:59;;;;;;;23.27;4.20;;;;;;;;;;5090787;28;20059;-61
2022/04/05 02:31:25;;;;;;;29.27;4.60;;;;;;;;;;5091188;28;20043;-61
2022/04/05 02:33:51;;;;;;;26.17;4.65;;;;;;;;;;5090631;28;20035;-61
2022/04/05 02:36:17;;;;;;;21.40;3.90;;;;;;;;;;5095516;28;20057;-61
2022/04/05 02:38:43;;;;;;;27.05;4.32;;;;;;;;;;5110434;28;20087;-60
2022/04/05 02:41:09;;;;;;;35.80;5.20;;;;;;;;;;5110836;28;20075;-61
2022/04/05 02:43:35;;;;;;;28.42;4.63;;;;;;;;;;5109467;28;20036;-61
2022/04/05 02:46:02;;;;;;;29.02;5.07;;;;;;;;;;5109306;28;20087;-62
2022/04/05 02:48:29;;;;;;;34.85;6.13;;;;;;;;;;5111037;28;20074;-61
2022/04/05 02:50:55;;;;;;;38.38;5.20;;;;;;;;;;5110676;28;20044;-61
2022/04/05 02:53:21;;;;;;;29.42;5.00;;;;;;;;;;5108224;28;20141;-61
2022/04/05 02:55:48;;;;;;;30.52;4.93;;;;;;;;;;5090216;28;20047;-61
2022/04/05 02:58:14;;;;;;;25.52;4.97;;;;;;;;;;5089938;28;20047;-60
2022/04/05 03:00:40;;;;;;;;;;;;;;;;;;5090856;28;20044;-61
2022/04/05 03:03:06;;;;;;;28.85;5.45;;;;;;;;;;5089929;28;20439;-61
2022/04/05 03:05:32;;;;;;;32.20;5.03;;;;;;;;;;5107209;28;20147;-61
2022/04/05 03:07:58;;;;;;;35.22;5.13;;;;;;;;;;5108104;28;20078;-61
2022/04/05 03:10:25;;;;;;;28.70;4.72;;;;;;;;;;5092246;28;20149;-61
2022/04/05 03:12:51;;;;;;;;;;;;;;;;;;5110889;28;20141;-60
2022/04/05 03:15:17;;;;;;;30.05;4.88;;;;;;;;;;5098172;28;20096;-61
2022/04/05 03:17:44;;;;;;;27.38;4.57;;;;;;;;;;5089718;28;20428;-62
2022/04/05 03:20:12;;;;;;;30.50;4.90;;;;;;;;;;5089316;28;20134;-61
2022/04/05 03:22:39;;;;;;;30.23;4.68;;;;;;;;;;5089771;28;20040;-61
2022/04/05 03:25:05;;;;;;;31.85;5.25;;;;;;;;;;5090395;28;20105;-61
2022/04/05 03:27:32;;;;;;;24.60;4.68;;;;;;;;;;5089785;28;20044;-62
2022/04/05 03:29:58;;;;;;;29.60;5.47;;;;;;;;;;5087684;28;20047;-62
2022/04/05 03:32:24;;;;;;;30.35;5.22;;;;;;;;;;5089771;28;20136;-61
2022/04/05 03:34:53;;;;;;;26.20;4.95;;;;;;;;;;5089275;28;20040;-61
2022/04/05 03:37:20;;;;;;;27.42;4.35;;;;;;;;;;5089973;28;20110;-61
2022/04/05 03:39:46;;;;;;;26.23;4.75;;;;;;;;;;5089731;28;20040;-61
2022/04/05 03:42:12;;;;;;;23.20;4.13;;;;;;;;;;5087392;28;20044;-61
2022/04/05 03:44:38;;;;;;;32.53;3.78;;;;;;;;;;5090797;28;20135;-60
2022/04/05 03:47:04;;;;;;;26.50;3.60;;;;;;;;;;5088757;28;20074;-61
2022/04/05 03:49:30;;;;;;;29.50;4.95;;;;;;;;;;5088889;28;20099;-60
2022/04/05 03:51:56;;;;;;;30.40;4.15;;;;;;;;;;5087810;28;20123;-60
2022/04/05 03:54:22;;;;;;;34.83;5.10;;;;;;;;;;5090003;28;20476;-60
2022/04/05 03:56:49;;;;;;;33.35;4.13;;;;;;;;;;5087929;28;20044;-60
2022/04/05 03:59:17;;;;;;;27.00;4.75;;;;;;;;;;5088641;28;20044;-60
2022/04/05 04:01:43;;;;;;;32.92;4.88;;;;;;;;;;5087945;28;20119;-60
2022/04/05 04:04:09;;;;;;;26.48;4.80;;;;;;;;;;5088324;28;20140;-60
2022/04/05 04:06:35;;;;;;;28.83;5.20;;;;;;;;;;5088201;28;20205;-60
2022/04/05 04:09:01;;;;;;;31.63;5.43;;;;;;;;;;5089226;28;20052;-60
2022/04/05 04:11:27;;;;;;;29.05;5.15;;;;;;;;;;5087136;28;20048;-60
2022/04/05 04:13:58;;;;;;;35.08;5.32;;;;;;;;;;5088933;28;20398;-60
2022/04/05 04:16:24;;;;;;;24.10;4.45;;;;;;;;;;5089056;28;20405;-60
2022/04/05 04:18:50;;;;;;;28.98;5.40;;;;;;;;;;5088996;28;20062;-60
2022/04/05 04:21:16;;;;;;;31.42;5.50;;;;;;;;;;5088561;28;20043;-60
2022/04/05 04:23:42;;;;;;;34.63;6.30;;;;;;;;;;5087473;28;20318;-61
2022/04/05 04:26:11;;;;;;;27.27;5.05;;;;;;;;;;5098052;28;20093;-60
2022/04/05 04:28:37;;;;;;;37.28;5.80;;;;;;;;;;5109199;28;20044;-60
2022/04/05 04:31:03;;;;;;;32.33;5.10;;;;;;;;;;5109118;28;20134;-60
2022/04/05 04:33:29;;;;;;;30.33;4.45;;;;;;;;;;5108476;28;20387;-60
2022/04/05 04:35:55;;;;;;;38.28;6.18;;;;;;;;;;5104131;28;20035;-60
2022/04/05 04:38:22;;;;;;;30.58;5.68;;;;;;;;;;5088204;28;20167;-61
2022/04/05 04:40:50;;;;;;;27.55;4.40;;;;;;;;;;5087144;28;20040;-60
2022/04/05 04:43:16;;;;;;;22.58;4.88;;;;;;;;;;5087988;28;20177;-60
2022/04/05 04:45:42;;;;;;;35.08;6.18;;;;;;;;;;5088707;28;20124;-60
2022/04/05 04:48:09;;;;;;;24.67;4.82;;;;;;;;;;5107458;28;20103;-60
2022/04/05 04:50:35;;;;;;;27.70;4.95;;;;;;;;;;5108851;28;20074;-60
2022/04/05 04:53:01;;;;;;;26.50;5.18;;;;;;;;;;5108710;28;20093;-60
2022/04/05 04:55:28;;;;;;;26.60;4.80;;;;;;;;;;5107001;28;20039;-60
2022/04/05 04:57:53;;;;;;;;;;;;;;;;;;5093105;28;20087;-60
2022/04/05 05:00:20;;;;;;;32.25;5.22;;;;;;;;;;5092490;28;19923;-60
2022/04/05 05:02:50;;;;;;;35.95;5.60;;;;;;;;;;5108627;28;20373;-60
2022/04/05 05:05:17;;;;;;;37.67;5.10;;;;;;;;;;5108278;28;20538;-61
2022/04/05 05:07:44;;;;;;;35.97;6.57;;;;;;;;;;5108608;28;20463;-61
2022/04/05 05:10:11;;;;;;;27.38;4.72;;;;;;;;;;5108069;28;20102;-61
2022/04/05 05:12:40;;;;;;;32.53;5.15;;;;;;;;;;5068393;28;20120;-61
2022/04/05 05:15:08;;;;;;;31.83;5.63;;;;;;;;;;5050700;28;20036;-60
2022/04/05 05:17:34;;;;;;;31.10;5.90;;;;;;;;;;5101842;28;20504;-61
2022/04/05 05:20:00;;;;;;;26.35;5.68;;;;;;;;;;5072191;28;20101;-61
2022/04/05 05:22:26;;;;;;;30.40;4.65;;;;;;;;;;5088665;28;20139;-60
2022/04/05 05:24:52;;;;;;;25.48;4.65;;;;;;;;;;5125076;27;20123;-60
2022/04/05 05:27:18;;;;;;;26.35;4.95;;;;;;;;;;5091924;28;20134;-61
2022/04/05 05:29:44;;;;;;;26.55;4.90;;;;;;;;;;5092387;28;20059;-60
2022/04/05 05:32:13;;;;;;;29.48;6.13;;;;;;;;;;5091837;28;20409;-60
2022/04/05 05:34:40;;;;;;;38.40;5.03;;;;;;;;;;5099575;28;20047;-60
2022/04/05 05:37:06;;;;;;;32.28;5.47;;;;;;;;;;5112454;28;20062;-60
2022/04/05 05:39:33;;;;;;;31.60;4.97;;;;;;;;;;5112027;28;20045;-60
2022/04/05 05:41:59;;;;;;;29.27;5.32;;;;;;;;;;5112819;28;20178;-60
2022/04/05 05:44:28;;;;;;;24.63;5.00;;;;;;;;;;5107841;28;20046;-60
2022/04/05 05:46:55;;;;;;;30.42;4.90;;;;;;;;;;5111869;28;20116;-60
2022/04/05 05:49:21;;;;;;;26.70;5.75;;;;;;;;;;5111363;28;20440;-60
2022/04/05 05:51:47;;;;;;;31.20;5.25;;;;;;;;;;5110596;28;20040;-60
2022/04/05 05:54:13;;;;;;;26.70;5.20;;;;;;;;;;5110151;28;20425;-60
2022/04/05 05:56:39;;;;;;;29.33;4.85;;;;;;;;;;5093546;28;20046;-60
2022/04/05 05:59:05;;;;;;;32.20;6.45;;;;;;;;;;5091498;28;20147;-60
2022/04/05 06:01:31;;;;;;;30.38;5.15;;;;;;;;;;5074548;28;20167;-61
2022/04/05 06:03:57;;;;;;;26.63;4.72;;;;;;;;;;5081978;28;20032;-60
2022/04/05 06:06:24;;;;;;;25.02;5.28;;;;;;;;;;5078170;28;20044;-62
2022/04/05 06:08:50;;;;;;;25.10;5.07;;;;;;;;;;5111626;28;20126;-60
2022/04/05 06:11:16;;;;;;;30.58;5.35;;;;;;;;;;5090068;28;20062;-60
2022/04/05 06:13:42;;;;;;;30.23;5.15;;;;;;;;;;5108892;28;20062;-61
2022/04/05 06:16:09;;;;;;;29.65;5.30;;;;;;;;;;5085960;28;20048;-61
2022/04/05 06:18:35;;;;;;;26.83;4.75;;;;;;;;;;5091163;28;20086;-60
2022/04/05 06:21:01;;;;;;;29.52;5.78;;;;;;;;;;5073915;28;20108;-61
2022/04/05 06:23:27;;;;;;;29.60;5.05;;;;;;;;;;5089633;28;20044;-60
2022/04/05 06:25:53;;;;;;;33.13;5.60;;;;;;;;;;5089749;28;20326;-61
2022/04/05 06:28:20;;;;;;;21.55;5.00;;;;;;;;;;5070305;28;20045;-61
2022/04/05 06:30:48;;;;;;;29.88;5.13;;;;;;;;;;5070667;28;20044;-61
2022/04/05 06:33:15;;;;;;;35.55;6.00;;;;;;;;;;5068462;28;20055;-61
2022/04/05 06:35:43;;;;;;;31.95;6.07;;;;;;;;;;5069004;28;20111;-61
2022/04/05 06:38:09;;;;;;;29.60;5.10;;;;;;;;;;5070874;28;20177;-61
2022/04/05 06:40:35;;;;;;;;;;;;;;;;;;5082194;28;20135;-61
2022/04/05 06:43:02;;;;;;;27.80;5.57;;;;;;;;;;5089241;28;20332;-61
2022/04/05 06:45:28;;;;;;;31.67;5.43;;;;;;;;;;5089390;28;20116;-61
2022/04/05 06:47:54;;;;;;;;;;;;;;;;;;5090397;28;20051;-61
2022/04/05 06:50:24;;;;;;;26.20;5.05;;;;;;;;;;5090025;28;20057;-62
2022/04/05 06:52:51;;;;;;;28.40;5.55;;;;;;;;;;5085068;28;20512;-61
2022/04/05 06:55:17;;;;;;;27.00;5.43;;;;;;;;;;5090605;28;20048;-61
2022/04/05 06:57:43;;;;;;;25.42;4.82;;;;;;;;;;5088637;28;20151;-61
2022/04/05 07:00:12;;;;;;;27.70;4.75;;;;;;;;;;5089160;28;20036;-61
2022/04/05 07:02:38;;;;;;;21.27;4.47;;;;;;;;;;5088390;28;20050;-61
2022/04/05 07:05:06;;;;;;;24.08;4.32;;;;;;;;;;5072399;28;20151;-61
2022/04/05 07:07:36;;;;;;;27.85;4.47;;;;;;;;;;5087670;28;20123;-61
2022/04/05 07:10:03;;;;;;;22.48;5.15;;;;;;;;;;5090006;28;20089;-61
2022/04/05 07:12:28;;;;;;;;;;;;;;;;;;5090590;28;20040;-61
2022/04/05 07:14:55;;;;;;;30.67;5.60;;;;;;;;;;5088747;28;20272;-61
2022/04/05 07:17:21;;;;;;;;;;;;;;;;;;5090670;28;20096;-61
2022/04/05 07:19:47;;;;;;;27.30;5.22;;;;;;;;;;5089755;28;19994;-61
2022/04/05 07:22:13;;;;;;;25.67;5.15;;;;;;;;;;5088450;28;20083;-61
2022/04/05 07:24:40;;;;;;;26.27;5.38;;;;;;;;;;5088078;28;20449;-61
2022/04/05 07:27:06;;;;;;;21.33;5.05;;;;;;;;;;5088616;28;20044;-61
2022/04/05 07:29:32;;;;;;;25.10;5.05;;;;;;;;;;5087528;28;20510;-62
2022/04/05 07:32:01;;;;;;;25.05;5.53;;;;;;;;;;5088201;28;20113;-61
2022/04/05 07:34:27;;;;;;;21.75;5.70;;;;;;;;;;5088060;28;20051;-61
2022/04/05 07:36:54;;;;;;;22.65;5.20;;;;;;;;;;5088095;28;20048;-61
2022/04/05 07:39:22;;;;;;;21.42;5.18;;;;;;;;;;5090310;28;20369;-62
2022/04/05 07:41:48;;;;;;;16.33;4.80;;;;;;;;;;5090622;28;20496;-61
2022/04/05 07:44:19;;;;;;;23.00;4.90;;;;;;;;;;5090374;28;20082;-61
2022/04/05 07:46:45;;;;;;;18.63;4.82;;;;;;;;;;5088520;28;20118;-61
2022/04/05 07:49:11;;;;;;;23.88;5.63;;;;;;;;;;5088040;28;20047;-62
2022/04/05 07:51:38;;;;;;;23.67;4.93;;;;;;;;;;5089883;28;20398;-61
2022/04/05 07:54:06;;;;;;;18.00;4.95;;;;;;;;;;5089138;28;20108;-61
2022/04/05 07:56:33;;;;;;;20.17;4.55;;;;;;;;;;5088737;28;20052;-61
2022/04/05 07:59:00;;;;;;;23.13;4.90;;;;;;;;;;5089098;28;20492;-61
2022/04/05 08:01:29;;;;;;;18.15;4.15;;;;;;;;;;5089052;28;20066;-61
2022/04/05 08:03:55;;;;;;;18.33;4.53;;;;;;;;;;5088428;28;20440;-61
2022/04/05 08:06:21;;;;;;;22.08;4.72;;;;;;;;;;5091919;28;20472;-60
2022/04/05 08:08:47;;;;;;;17.00;4.10;;;;;;;;;;5088578;28;20040;-61
2022/04/05 08:11:19;;;;;;;17.38;4.20;;;;;;;;;;5090060;28;20075;-61
2022/04/05 08:13:45;;;;;;;23.15;4.60;;;;;;;;;;5086784;28;20128;-61
2022/04/05 08:16:11;;;;;;;20.33;4.47;;;;;;;;;;5088994;28;20134;-61
2022/04/05 08:18:37;;;;;;;21.92;4.85;;;;;;;;;;5088530;28;20098;-61
2022/04/05 08:21:03;;;;;;;24.08;5.45;;;;;;;;;;5094506;28;20058;-61
2022/04/05 08:23:29;;;;;;;26.23;5.47;;;;;;;;;;5109194;28;20222;-61
2022/04/05 08:25:55;;;;;;;20.17;4.70;;;;;;;;;;5108850;28;20043;-61
2022/04/05 08:28:22;;;;;;;29.48;4.97;;;;;;;;;;5109231;28;20452;-61
2022/04/05 08:30:52;;;;;;;24.38;5.72;;;;;;;;;;5108254;28;20348;-61
2022/04/05 08:33:21;;;;;;;17.60;4.32;;;;;;;;;;5088657;28;20050;-61
2022/04/05 08:35:47;;;;;;;20.40;5.43;;;;;;;;;;5088273;28;20070;-61
2022/04/05 08:38:13;;;;;;;21.50;5.20;;;;;;;;;;5086976;28;20060;-61
2022/04/05 08:40:43;;;;;;;23.23;5.60;;;;;;;;;;5086397;28;20494;-61
2022/04/05 08:43:09;;;;;;;25.45;5.57;;;;;;;;;;5089630;28;20474;-61
2022/04/05 08:45:41;;;;;;;22.75;4.93;;;;;;;;;;5086622;28;20083;-61
2022/04/05 08:48:11;;;;;;;16.48;5.57;;;;;;;;;;5088916;28;20132;-61
2022/04/05 08:50:40;;;;;;;21.23;4.82;;;;;;;;;;5085919;28;20051;-61
2022/04/05 08:53:06;;;;;;;22.85;5.78;;;;;;;;;;5089269;28;20127;-61
2022/04/05 08:55:35;;;;;;;19.75;5.88;;;;;;;;;;5087066;28;20497;-60
2022/04/05 08:58:01;;;;;;;27.30;6.15;;;;;;;;;;5088211;28;20157;-60
2022/04/05 09:00:27;;;;;;;19.67;6.07;;;;;;;;;;5088347;28;20040;-61
2022/04/05 09:02:54;;;;;;;18.83;4.90;;;;;;;;;;5100835;28;20550;-61
2022/04/05 09:05:31;;;;;;;20.13;5.13;;;;;;;;;;5107995;28;20040;-60
2022/04/05 09:08:13;;;;;;;21.35;5.15;;;;;;;;;;5107178;28;20135;-61
2022/04/05 09:10:39;;;;;;;18.38;5.60;;;;;;;;;;5108227;28;20132;-61
2022/04/05 09:13:09;;;;;;;17.27;4.78;;;;;;;;;;5106854;28;20138;-61
2022/04/05 09:15:35;;;;;;;17.23;4.60;;;;;;;;;;5108193;28;20047;-61
2022/04/05 09:18:01;;;;;;;;;;;;;;;;;;5107985;28;20512;-61
2022/04/05 09:20:28;;;;;;;13.65;4.07;;;;;;;;;;5108564;28;19988;-60
2022/04/05 09:22:56;;;;;;;15.93;4.32;;;;;;;;;;5104690;28;20137;-61
2022/04/05 09:25:23;;;;;;;13.48;4.63;;;;;;;;;;5108350;28;20063;-61
2022/04/05 09:27:54;;;;;;;16.95;4.13;;;;;;;;;;5108017;28;20202;-62
2022/04/05 09:30:23;;;;;;;16.85;4.35;;;;;;;;;;5108454;28;20126;-61
2022/04/05 09:32:51;;;;;;;15.45;5.22;;;;;;;;;;5108513;28;20148;-61
2022/04/05 09:35:18;;;;;;;14.93;4.60;;;;;;;;;;5086798;28;20101;-61
2022/04/05 09:37:45;;;;;;;15.40;4.75;;;;;;;;;;5088089;28;20411;-61
2022/04/05 09:40:14;;;;;;;13.38;4.13;;;;;;;;;;5087133;28;20063;-60
2022/04/05 09:43:00;;;;;;;13.20;4.03;;;;;;;;;;5087869;28;20036;-60
2022/04/05 09:45:44;;;;;;;18.60;5.13;;;;;;;;;;5088082;28;20120;-61
2022/04/05 09:48:11;;;;;;;14.90;4.68;;;;;;;;;;5104544;28;20070;-60
2022/04/05 09:50:56;;;;;;;16.95;5.32;;;;;;;;;;5109544;28;20128;-61
2022/04/05 09:53:22;;;;;;;15.85;4.60;;;;;;;;;;5108024;28;20440;-62
2022/04/05 09:56:01;;;;;;;18.70;4.43;;;;;;;;;;5107785;28;20428;-61
2022/04/05 09:58:27;;;;;;;18.17;5.03;;;;;;;;;;5095864;28;20044;-61
2022/04/05 10:01:08;;;;;;;15.77;4.53;;;;;;;;;;5088656;28;20051;-61
2022/04/05 10:03:41;;;;;;;14.45;4.40;;;;;;;;;;5087794;28;20092;-62
2022/04/05 10:06:07;;;;;;;13.85;4.30;;;;;;;;;;5106324;28;20052;-61
2022/04/05 10:08:34;;;;;;;14.32;4.75;;;;;;;;;;5091328;28;20048;-62
2022/04/05 10:11:00;;;;;;;16.35;4.82;;;;;;;;;;5090755;28;20429;-63
2022/04/05 10:13:30;;;;;;;17.10;4.40;;;;;;;;;;5090916;28;20480;-61
2022/04/05 10:15:57;;;;;;;13.95;4.85;;;;;;;;;;5090506;28;20044;-61
2022/04/05 10:18:28;;;;;;;14.90;4.65;;;;;;;;;;5110494;28;20111;-61
2022/04/05 10:20:58;;;;;;;16.70;5.15;;;;;;;;;;5110656;27;20052;-60
2022/04/05 10:23:24;;;;;;;14.50;5.30;;;;;;;;;;5110897;28;20110;-61
2022/04/05 10:25:51;;;;;;;15.65;5.05;;;;;;;;;;5109640;28;20056;-62
2022/04/05 10:28:37;;;;;;;15.43;5.00;;;;;;;;;;5109264;28;20088;-61
2022/04/05 10:31:06;;;;;;;15.35;5.05;;;;;;;;;;5109372;28;20092;-62
2022/04/05 10:33:32;;;;;;;13.23;4.47;;;;;;;;;;5109477;28;20126;-61
2022/04/05 10:36:00;;;;;;;12.27;4.88;;;;;;;;;;5092223;28;20052;-62
2022/04/05 10:38:27;;;;;;;11.73;4.75;;;;;;;;;;5102671;28;20120;-62
2022/04/05 10:41:15;;;;;;;11.35;4.63;;;;;;;;;;5089851;28;20078;-62
2022/04/05 10:43:45;;;;;;;12.82;4.55;;;;;;;;;;5070118;28;20156;-61
2022/04/05 10:46:11;;;;;;;12.23;4.78;;;;;;;;;;5068374;28;20060;-62
2022/04/05 10:48:37;;;;;;;;;;;;;;;;;;5070376;28;20143;-62
2022/04/05 10:51:05;;;;;;;13.13;4.40;;;;;;;;;;5069593;28;19920;-62
2022/04/05 10:53:33;;;;;;;10.68;4.55;;;;;;;;;;5103180;28;20187;-62
2022/04/05 10:56:09;;;;;;;10.25;4.65;;;;;;;;;;5110165;28;20043;-62
2022/04/05 10:58:47;;;;;;;14.35;5.18;;;;;;;;;;5111128;28;20070;-62
2022/04/05 11:01:20;;;;;;;12.02;4.88;;;;;;;;;;5110830;28;20116;-62
2022/04/05 11:04:05;;;;;;;11.82;4.25;;;;;;;;;;5095711;28;20044;-63
2022/04/05 11:06:51;;;;;;;10.95;4.10;;;;;;;;;;5090068;28;20089;-63
2022/04/05 11:09:27;;;;;;;13.88;4.70;;;;;;;;;;5088235;28;20194;-63
2022/04/05 11:11:56;;;;;;;13.50;4.75;;;;;;;;;;5088092;28;20147;-63
2022/04/05 11:14:41;;;;;;;12.40;4.90;;;;;;;;;;5085959;28;20036;-63
2022/04/05 11:17:08;;;;;;;9.82;4.13;;;;;;;;;;5084664;28;20379;-62
2022/04/05 11:19:38;;;;;;;10.95;4.78;;;;;;;;;;5088563;28;20131;-62
2022/04/05 11:22:05;;;;;;;10.85;4.22;;;;;;;;;;5087992;28;20058;-61
2022/04/05 11:24:55;;;;;;;10.95;4.07;;;;;;;;;;5087821;28;20058;-61
2022/04/05 11:27:25;;;;;;;10.23;4.18;;;;;;;;;;5051126;28;20498;-61
2022/04/05 11:30:10;;;;;;;10.05;4.40;;;;;;;;;;5078536;28;20090;-61
2022/04/05 11:32:39;;;;;;;11.38;4.55;;;;;;;;;;5078811;28;20199;-62
2022/04/05 11:35:05;;;;;;;10.95;3.95;;;;;;;;;;5068467;28;20049;-61
2022/04/05 11:37:34;;;;;;;12.30;4.30;;;;;;;;;;5086493;28;20052;-62
2022/04/05 11:40:01;;;;;;;11.32;4.07;;;;;;;;;;5089252;28;20056;-61
2022/04/05 11:42:28;;;;;;;8.02;3.63;;;;;;;;;;5077858;28;20077;-60
2022/04/05 11:45:06;;;;;;;10.18;4.13;;;;;;;;;;5073030;28;20052;-60
2022/04/05 11:47:32;;;;;;;8.57;3.58;;;;;;;;;;5078791;28;20052;-63
2022/04/05 11:49:59;;;;;;;8.63;3.70;;;;;;;;;;5078079;28;20123;-62
2022/04/05 11:52:30;;;;;;;8.82;3.30;;;;;;;;;;5085792;28;20437;-62
2022/04/05 11:57:45;;;;;;;7.65;3.22;;;;;;;;;;5089206;28;20353;-61
2022/04/05 12:00:11;;;;;;;8.77;3.30;;;;;;;;;;5089135;28;20233;-61
2022/04/05 12:02:37;;;;;;;7.82;3.05;;;;;;;;;;5087834;28;20048;-61
2022/04/05 12:05:04;;;;;;;7.85;3.30;;;;;;;;;;5090727;28;20127;-61
2022/04/05 12:07:35;;;;;;;9.40;3.83;;;;;;;;;;5089295;28;20043;-60
2022/04/05 12:10:01;;;;;;;7.60;3.13;;;;;;;;;;5106009;28;20107;-61
2022/04/05 12:12:31;;;;;;;8.02;3.15;;;;;;;;;;5091693;28;20078;-60
2022/04/05 12:14:57;;;;;;;7.95;3.47;;;;;;;;;;5109489;28;20051;-61
2022/04/05 12:17:25;;;;;;;8.45;3.75;;;;;;;;;;5109075;28;20043;-61
2022/04/05 12:19:53;;;;;;;9.57;3.50;;;;;;;;;;5105700;28;20047;-61
2022/04/05 12:22:23;;;;;;;8.70;3.38;;;;;;;;;;5108242;28;20063;-61
2022/04/05 12:24:55;;;;;;;8.77;3.40;;;;;;;;;;5109457;28;20127;-60
2022/04/05 12:27:23;;;;;;;9.50;3.78;;;;;;;;;;5107732;28;20052;-61
2022/04/05 12:29:50;;;;;;;9.20;3.60;;;;;;;;;;5107717;28;20071;-62
2022/04/05 12:32:16;;;;;;;8.90;3.70;;;;;;;;;;5106732;28;20055;-61
2022/04/05 12:34:42;;;;;;;9.13;3.65;;;;;;;;;;5109165;28;20533;-61
2022/04/05 12:37:14;;;;;;;8.70;3.70;;;;;;;;;;5106904;28;20051;-61
2022/04/05 12:39:42;;;;;;;8.73;3.75;;;;;;;;;;5107840;28;20070;-60
2022/04/05 12:42:09;;;;;;;9.75;4.25;;;;;;;;;;5107008;28;20063;-61
2022/04/05 12:44:36;;;;;;;9.55;3.85;;;;;;;;;;5109129;28;20054;-60
2022/04/05 12:47:14;;;;;;;9.32;4.05;;;;;;;;;;5108911;28;20157;-61
2022/04/05 12:49:49;;;;;;;9.40;3.92;;;;;;;;;;5109209;28;20083;-61
2022/04/05 12:52:22;;;;;;;9.40;3.90;;;;;;;;;;5106660;28;20040;-62
2022/04/05 12:54:53;;;;;;;9.30;4.32;;;;;;;;;;5068498;28;20049;-61
2022/04/05 12:57:22;;;;;;;9.80;4.15;;;;;;;;;;5068020;28;20497;-60
2022/04/05 12:59:49;;;;;;;9.88;4.28;;;;;;;;;;5068450;28;20195;-60
2022/04/05 13:02:18;;;;;;;10.25;4.28;;;;;;;;;;5098388;28;20355;-61
2022/04/05 13:04:45;;;;;;;13.40;5.10;;;;;;;;;;5108423;28;20130;-61
2022/04/05 13:07:11;;;;;;;10.93;4.90;;;;;;;;;;5108266;28;20066;-60
2022/04/05 13:09:40;;;;;;;11.85;5.72;;;;;;;;;;5107942;28;20039;-60
2022/04/05 13:12:15;;;;;;;13.93;6.18;;;;;;;;;;5106284;28;20472;-61
2022/04/05 13:14:42;;;;;;;12.93;6.55;;;;;;;;;;5106784;28;20413;-61
2022/04/05 13:17:11;;;;;;;14.38;6.38;;;;;;;;;;5108056;28;20088;-62
2022/04/05 13:19:37;;;;;;;14.05;6.72;;;;;;;;;;5108745;28;20083;-62
2022/04/05 13:22:03;;;;;;;;;;;;;;;;;;5104324;28;20113;-62
2022/04/05 13:24:58;;;;;;;15.65;7.50;;;;;;;;;;5087436;28;20379;-63
2022/04/05 13:27:25;;;;;;;17.65;7.63;;;;;;;;;;5084089;28;20052;-63
2022/04/05 13:29:51;;;;;;;;;;;;;;;;;;5088907;28;20153;-63
2022/04/05 13:32:24;;;;;;;18.23;8.38;;;;;;;;;;5087072;28;19947;-63
2022/04/05 13:34:52;;;;;;;20.08;8.43;;;;;;;;;;5088268;28;20490;-63
2022/04/05 13:37:20;;;;;;;18.90;9.27;;;;;;;;;;5087714;28;20181;-62
2022/04/05 13:39:58;;;;;;;19.80;9.05;;;;;;;;;;5090057;28;20096;-64
2022/04/05 13:42:33;;;;;;;17.65;8.85;;;;;;;;;;5091769;28;20089;-64
2022/04/05 13:44:59;;;;;;;17.70;9.25;;;;;;;;;;5092580;28;20048;-64
2022/04/05 13:47:25;;;;;;;25.33;9.85;;;;;;;;;;5091539;28;20446;-64
2022/04/05 13:49:51;;;;;;;23.88;10.10;;;;;;;;;;5090615;28;20048;-62
2022/04/05 13:52:17;;;;;;;27.45;10.90;;;;;;;;;;5091474;28;20162;-63
2022/04/05 13:54:43;;;;;;;21.30;10.63;;;;;;;;;;5093184;28;20067;-62
2022/04/05 13:57:11;;;;;;;30.20;11.70;;;;;;;;;;5091670;28;20492;-61
2022/04/05 13:59:40;;;;;;;27.02;9.45;;;;;;;;;;5091585;28;20052;-63
2022/04/05 14:02:11;;;;;;;34.47;11.73;;;;;;;;;;5091350;28;20464;-60
2022/04/05 14:04:52;;;;;;;30.00;12.25;;;;;;;;;;5101865;28;20352;-62
2022/04/05 14:07:18;;;;;;;34.75;12.88;;;;;;;;;;5111745;28;20136;-64
2022/04/05 14:09:44;;;;;;;29.92;11.45;;;;;;;;;;5111737;28;20081;-62
2022/04/05 14:12:10;;;;;;;35.78;13.35;;;;;;;;;;5111924;28;20062;-63
2022/04/05 14:14:40;;;;;;;32.58;12.23;;;;;;;;;;5110132;28;20128;-64
2022/04/05 14:17:09;;;;;;;28.83;11.52;;;;;;;;;;5111718;28;20135;-63
2022/04/05 14:19:35;;;;;;;37.00;14.23;;;;;;;;;;5109929;28;20087;-63
2022/04/05 14:22:12;;;;;;;32.42;13.32;;;;;;;;;;5111249;28;20441;-64
2022/04/05 14:24:38;;;;;;;34.63;13.93;;;;;;;;;;5110290;28;20079;-63
2022/04/05 14:27:04;;;;;;;34.83;14.00;;;;;;;;;;5090936;28;20427;-62
2022/04/05 14:29:30;;;;;;;35.17;15.15;;;;;;;;;;5090650;28;20395;-62
2022/04/05 14:32:01;;;;;;;33.55;14.82;;;;;;;;;;5090899;28;20141;-62
2022/04/05 14:34:28;;;;;;;28.75;12.23;;;;;;;;;;5090209;28;20048;-63
2022/04/05 14:36:54;;;;;;;28.38;11.73;;;;;;;;;;5083534;28;20076;-63
2022/04/05 14:39:20;;;;;;;40.95;15.23;;;;;;;;;;5082498;28;20440;-65
2022/04/05 14:41:48;;;;;;;31.65;14.18;;;;;;;;;;5078598;28;20114;-64